Time;durP1;ratioP1;P1;durP2;ratioP2;P2;SDS_P1;SDS_P2;PMS_P1;PMS_P2;Temp;Humidity;BMP_temperature;BMP_pressure;BME280_temperature;BME280_humidity;BME280_pressure;Samples;Min_cycle;Max_cycle;Signal;HPM_P1;HPM_P2
2022/08/12 00:45:13;;;;;;;75.60;7.40;;;22.70;1.00;;;;;;5088152;28;20796;-82
2022/08/12 00:47:40;;;;;;;69.93;6.97;;;22.70;1.00;;;;;;5088682;28;20191;-82
2022/08/12 00:50:08;;;;;;;73.60;7.10;;;22.70;1.00;;;;;;5086468;28;20164;-82
2022/08/12 00:52:34;;;;;;;70.37;7.70;;;22.60;1.00;;;;;;5088798;28;20403;-82
2022/08/12 00:55:03;;;;;;;69.47;7.00;;;22.60;1.00;;;;;;5088232;28;20402;-82
2022/08/12 00:57:35;;;;;;;68.67;7.27;;;22.50;1.00;;;;;;5086403;28;20429;-82
2022/08/12 01:00:14;;;;;;;71.37;7.40;;;22.50;1.00;;;;;;5085778;28;20994;-82
2022/08/12 01:02:44;;;;;;;69.37;6.83;;;22.40;1.00;;;;;;5088275;28;20383;-83
2022/08/12 01:13:37;;;;;;;69.07;6.40;;;22.30;1.00;;;;;;5090622;28;20381;-82
2022/08/12 01:16:06;;;;;;;74.23;6.90;;;22.30;1.00;;;;;;5089821;28;20440;-82
2022/08/12 01:18:34;;;;;;;70.80;6.67;;;22.20;1.00;;;;;;5090485;28;20461;-84
2022/08/12 01:21:26;;;;;;;70.27;7.10;;;22.20;1.00;;;;;;5091979;28;20452;-82
2022/08/12 01:24:15;;;;;;;68.27;7.07;;;22.20;1.00;;;;;;5075051;28;20927;-82
2022/08/12 01:26:44;;;;;;;70.47;7.07;;;22.20;1.00;;;;;;5071828;28;20475;-82
2022/08/12 01:29:17;;;;;;;69.77;7.50;;;22.10;1.00;;;;;;5092240;28;20406;-82
2022/08/12 01:31:48;;;;;;;76.80;8.23;;;22.10;1.00;;;;;;5092006;28;20397;-82
2022/08/12 01:34:21;;;;;;;68.70;7.07;;;22.10;1.00;;;;;;5091964;28;20394;-82
2022/08/12 01:36:56;;;;;;;70.40;7.23;;;22.00;1.00;;;;;;5092606;28;20524;-82
2022/08/12 01:39:28;;;;;;;70.77;7.47;;;22.00;1.00;;;;;;5090827;28;20378;-82
2022/08/12 01:42:00;;;;;;;69.60;7.57;;;22.00;1.00;;;;;;5092004;28;20596;-82
2022/08/12 01:44:27;;;;;;;73.80;7.73;;;21.90;1.00;;;;;;5092157;28;20446;-82
2022/08/12 01:47:21;;;;;;;69.97;7.20;;;21.90;1.00;;;;;;5074018;28;20779;-82
2022/08/12 01:49:49;;;;;;;70.07;7.57;;;21.90;1.00;;;;;;5092404;28;20371;-82
2022/08/12 01:52:42;;;;;;;69.53;7.47;;;21.90;1.00;;;;;;5074318;28;20406;-82
2022/08/12 01:55:10;;;;;;;69.10;7.30;;;21.90;1.00;;;;;;5089936;28;20390;-82
2022/08/12 01:57:43;;;;;;;70.80;6.97;;;21.90;1.00;;;;;;5090151;28;20418;-82
2022/08/12 02:00:12;;;;;;;70.97;7.50;;;21.80;1.00;;;;;;5071777;28;20511;-82
2022/08/12 02:02:47;;;;;;;70.47;6.83;;;21.80;1.00;;;;;;5089991;28;20440;-82
2022/08/12 02:11:28;;;;;;;69.57;7.43;;;21.70;1.00;;;;;;5089503;28;20378;-82
2022/08/12 02:13:54;;;;;;;69.40;7.50;;;21.70;1.00;;;;;;5089021;28;20381;-82
2022/08/12 02:16:41;;;;;;;68.47;6.90;;;21.60;1.00;;;;;;5089615;28;20501;-82
2022/08/12 02:19:37;;;;;;;69.50;7.60;;;21.60;1.00;;;;;;5073471;28;20398;-82
2022/08/12 02:22:16;;;;;;;71.70;7.80;;;21.60;1.00;;;;;;5091163;28;20434;-82
2022/08/12 02:24:47;;;;;;;69.93;7.90;;;21.50;1.00;;;;;;5089840;28;20436;-82
2022/08/12 02:27:16;;;;;;;70.50;7.33;;;21.50;1.00;;;;;;5089831;28;20410;-82
2022/08/12 02:29:42;;;;;;;71.97;8.20;;;21.50;1.00;;;;;;5073165;28;20402;-82
2022/08/12 02:32:08;;;;;;;72.83;8.77;;;21.40;1.00;;;;;;5088899;28;20402;-82
2022/08/12 02:34:34;;;;;;;69.17;7.77;;;21.40;1.00;;;;;;5089192;28;20409;-81
2022/08/12 02:37:01;;;;;;;70.93;8.33;;;21.40;1.00;;;;;;5090530;28;20476;-82
2022/08/12 02:39:32;;;;;;;75.70;8.17;;;21.40;1.00;;;;;;5090939;28;20496;-82
2022/08/12 02:42:01;;;;;;;72.87;8.50;;;21.40;1.00;;;;;;5091268;28;20584;-82
2022/08/12 02:44:34;;;;;;;72.60;8.30;;;21.40;1.00;;;;;;5091121;28;20405;-82
2022/08/12 02:47:05;;;;;;;71.60;9.10;;;21.30;1.00;;;;;;5090412;28;20415;-82
2022/08/12 02:49:38;;;;;;;71.37;9.63;;;21.30;1.00;;;;;;5070679;28;20946;-82
2022/08/12 02:52:06;;;;;;;71.07;9.57;;;21.30;1.00;;;;;;5070777;28;20422;-82
2022/08/12 02:54:33;;;;;;;73.63;9.90;;;21.20;1.00;;;;;;5090885;28;20945;-82
2022/08/12 02:56:59;;;;;;;69.10;9.23;;;21.20;1.00;;;;;;5088427;28;20426;-82
2022/08/12 02:59:26;;;;;;;74.20;10.90;;;21.20;1.00;;;;;;5090361;28;20414;-82
2022/08/12 03:01:54;;;;;;;71.17;11.10;;;21.20;1.00;;;;;;5071051;28;20503;-82
2022/08/12 03:04:31;;;;;;;70.27;10.20;;;21.10;1.00;;;;;;5088718;28;20409;-82
2022/08/12 03:07:28;;;;;;;73.30;12.50;;;21.10;1.00;;;;;;5071717;28;20430;-82
2022/08/12 03:10:04;;;;;;;71.00;13.67;;;21.00;1.00;;;;;;5090164;28;20413;-82
2022/08/12 03:12:34;;;;;;;72.90;15.17;;;20.90;1.00;;;;;;5090571;28;20469;-82
2022/08/12 03:15:10;;;;;;;73.47;14.47;;;20.90;1.00;;;;;;5088528;28;20781;-82
2022/08/12 03:17:50;;;;;;;73.10;15.40;;;20.90;1.00;;;;;;5070620;28;20441;-82
2022/08/12 03:20:21;;;;;;;73.10;16.57;;;20.90;1.00;;;;;;5088390;28;20457;-82
2022/08/12 03:22:49;;;;;;;76.23;17.27;;;20.80;1.00;;;;;;5070458;28;20422;-82
2022/08/12 03:25:26;;;;;;;77.33;19.67;;;20.80;1.00;;;;;;5154258;22;20470;-85
2022/08/12 03:27:57;;;;;;;75.70;16.10;;;20.80;1.00;;;;;;5060700;28;20372;-85
2022/08/12 03:30:30;;;;;;;77.03;19.87;;;20.80;1.00;;;;;;5058753;28;20395;-85
2022/08/12 03:32:57;;;;;;;74.57;19.53;;;20.80;1.00;;;;;;5060084;28;20383;-85
2022/08/12 03:35:26;;;;;;;74.00;17.97;;;20.70;1.00;;;;;;5060118;28;20399;-85
2022/08/12 03:38:07;;;;;;;72.67;18.10;;;20.70;1.00;;;;;;5060459;28;20769;-85
2022/08/12 04:00:36;;;;;;;75.50;22.47;;;20.60;1.00;;;;;;5059567;28;20522;-85
2022/08/12 04:03:04;;;;;;;75.47;21.90;;;20.60;1.00;;;;;;5059701;28;20400;-85
2022/08/12 04:05:31;;;;;;;77.17;22.07;;;20.60;1.00;;;;;;5039876;28;20438;-85
2022/08/12 04:08:02;;;;;;;74.20;21.17;;;20.50;1.10;;;;;;5058780;28;20403;-85
2022/08/12 04:13:24;;;;;;;77.27;20.17;;;20.40;3.20;;;;;;5060257;28;20469;-85
2022/08/12 04:15:51;;;;;;;78.70;21.47;;;20.40;3.20;;;;;;5060477;28;20492;-85
2022/08/12 04:18:20;;;;;;;74.37;19.13;;;20.40;2.80;;;;;;5059472;28;20406;-85
2022/08/12 04:20:48;;;;;;;76.00;19.20;;;20.40;3.20;;;;;;5040791;28;20530;-85
2022/08/12 04:23:15;;;;;;;74.77;19.43;;;20.30;3.90;;;;;;5058076;28;20775;-85
2022/08/12 04:25:50;;;;;;;74.90;19.50;;;20.30;5.40;;;;;;5057752;28;20767;-85
2022/08/12 04:28:28;;;;;;;75.57;18.27;;;20.30;4.80;;;;;;5058353;28;20395;-85
2022/08/12 04:31:03;;;;;;;73.87;18.17;;;20.20;5.10;;;;;;5040072;28;20409;-85
2022/08/12 04:33:31;;;;;;;74.73;17.77;;;20.20;6.30;;;;;;5040226;28;20442;-85
2022/08/12 04:36:00;;;;;;;75.00;17.47;;;20.30;6.00;;;;;;5040339;28;20963;-85
2022/08/12 04:38:27;;;;;;;74.77;17.00;;;20.20;6.80;;;;;;5057699;28;20408;-85
2022/08/12 04:40:54;;;;;;;74.27;13.90;;;20.20;7.20;;;;;;5058074;28;20445;-85
2022/08/12 04:43:28;;;;;;;73.67;14.07;;;20.20;8.90;;;;;;5039189;28;20421;-85
2022/08/12 04:45:58;;;;;;;71.53;12.97;;;20.20;10.70;;;;;;5091100;22;20420;-85
2022/08/12 04:48:23;;;;;;;71.93;13.20;;;20.20;10.00;;;;;;5077611;28;20380;-85
2022/08/12 04:50:49;;;;;;;72.47;13.00;;;20.10;11.50;;;;;;5059489;28;20491;-85
2022/08/12 04:53:18;;;;;;;71.50;11.37;;;20.20;11.20;;;;;;5076782;28;20246;-85
2022/08/12 04:55:45;;;;;;;71.60;13.00;;;20.10;13.10;;;;;;5077418;28;20414;-85
2022/08/12 04:58:11;;;;;;;76.30;12.33;;;20.20;13.50;;;;;;5078471;28;20424;-85
2022/08/12 05:00:42;;;;;;;73.07;12.17;;;20.30;13.20;;;;;;5078911;28;20447;-85
2022/08/12 05:03:08;;;;;;;71.43;10.20;;;20.30;13.70;;;;;;5060043;28;20412;-85
2022/08/12 05:05:36;;;;;;;71.60;10.63;;;20.30;14.50;;;;;;5078359;28;20424;-85
2022/08/12 05:08:16;;;;;;;74.03;11.40;;;20.30;16.60;;;;;;5078060;28;20209;-85
2022/08/12 05:11:05;;;;;;;70.37;10.07;;;20.30;17.00;;;;;;5079251;28;20412;-85
2022/08/12 05:13:36;;;;;;;71.80;10.30;;;20.30;18.30;;;;;;5070713;28;20418;-85
2022/08/12 05:16:03;;;;;;;73.23;10.30;;;20.30;19.50;;;;;;5079747;28;20437;-85
2022/08/12 05:18:32;;;;;;;72.83;10.00;;;20.40;19.50;;;;;;5079476;28;20465;-85
2022/08/12 05:21:01;;;;;;;71.40;10.50;;;20.40;19.90;;;;;;5062348;28;20978;-85
2022/08/12 05:23:29;;;;;;;70.27;9.30;;;20.40;20.40;;;;;;5079888;28;20395;-85
2022/08/12 05:25:55;;;;;;;70.57;8.67;;;20.30;21.50;;;;;;5079044;28;20751;-85
2022/08/12 05:28:23;;;;;;;73.83;9.83;;;20.40;20.40;;;;;;5061035;28;20419;-85
2022/08/12 05:30:49;;;;;;;73.53;10.47;;;20.40;18.50;;;;;;5079432;28;20453;-85
2022/08/12 05:33:15;;;;;;;73.17;8.77;;;20.40;17.30;;;;;;5059556;28;20898;-85
2022/08/12 05:35:44;;;;;;;69.53;8.47;;;20.50;15.90;;;;;;5058910;28;20953;-85
2022/08/12 05:40:57;;;;;;;71.70;9.03;;;20.60;13.80;;;;;;5082774;28;20447;-85
2022/08/12 05:43:35;;;;;;;70.10;9.40;;;20.60;12.00;;;;;;5064001;28;20489;-85
2022/08/12 05:46:04;;;;;;;70.30;9.70;;;20.70;10.00;;;;;;5082458;28;20466;-85
2022/08/12 05:48:32;;;;;;;71.83;9.70;;;20.70;8.50;;;;;;5083182;28;20742;-85
2022/08/12 05:50:58;;;;;;;74.37;11.47;;;20.70;8.50;;;;;;5065572;28;20418;-85
2022/08/12 05:53:23;;;;;;;69.90;9.23;;;20.70;7.00;;;;;;5082807;28;20407;-85
2022/08/12 05:55:54;;;;;;;78.63;9.10;;;20.70;8.80;;;;;;5085183;28;20191;-84
2022/08/12 05:58:20;;;;;;;71.97;10.90;;;20.80;7.90;;;;;;5085184;28;20635;-85
2022/08/12 06:01:30;;;;;;;77.03;11.50;;;20.80;6.50;;;;;;5064381;28;20455;-87
2022/08/12 06:08:16;;;;;;;;;;;;;;;;;;;;;
2022/08/12 06:11:37;;;;;;;;;;;;;;;;;;;;;
2022/08/12 06:14:37;;;;;;;76.80;11.93;;;20.90;1.00;;;;;;4990007;28;20524;-87
2022/08/12 06:17:08;;;;;;;70.37;9.10;;;20.90;1.00;;;;;;5011436;28;20948;-86
2022/08/12 06:19:34;;;;;;;76.43;11.13;;;21.00;1.00;;;;;;5041709;28;20452;-86
2022/08/12 06:22:00;;;;;;;71.23;7.70;;;21.00;1.00;;;;;;5075988;28;20446;-86
2022/08/12 06:24:29;;;;;;;74.30;5.83;;;21.10;1.00;;;;;;5058067;28;20498;-86
2022/08/12 06:26:56;;;;;;;74.27;7.23;;;21.10;1.00;;;;;;5075795;28;20219;-86
2022/08/12 06:29:24;;;;;;;73.03;5.37;;;21.20;1.00;;;;;;5075952;28;20410;-86
2022/08/12 06:31:55;;;;;;;69.17;5.73;;;21.30;1.00;;;;;;5058117;28;20456;-86
2022/08/12 06:34:35;;;;;;;68.30;5.80;;;21.30;1.00;;;;;;5075847;28;20462;-86
2022/08/12 06:37:01;;;;;;;74.53;5.50;;;21.30;1.00;;;;;;5075945;28;20951;-86
2022/08/12 06:39:27;;;;;;;69.17;5.50;;;21.50;1.00;;;;;;5075291;28;20489;-86
2022/08/12 06:44:38;;;;;;;71.73;6.27;;;21.50;1.00;;;;;;5075936;28;20453;-87
2022/08/12 06:47:04;;;;;;;69.07;5.30;;;21.50;1.00;;;;;;5075549;28;20434;-87
2022/08/12 06:49:35;;;;;;;68.70;5.83;;;21.50;1.00;;;;;;5058383;28;20426;-86
2022/08/12 06:52:06;;;;;;;70.73;5.17;;;21.60;1.00;;;;;;5057569;28;20815;-86
2022/08/12 06:54:33;;;;;;;68.53;5.40;;;21.60;1.00;;;;;;5057358;28;20410;-86
2022/08/12 06:57:16;;;;;;;69.10;4.70;;;21.70;1.00;;;;;;5075185;28;20516;-87
2022/08/12 07:00:02;;;;;;;67.30;5.47;;;21.80;1.00;;;;;;5057468;28;20407;-86
2022/08/12 07:02:28;;;;;;;69.93;4.70;;;21.80;1.00;;;;;;5042221;28;20445;-87
2022/08/12 07:04:54;;;;;;;68.57;4.90;;;21.80;1.00;;;;;;5075423;28;20426;-86
2022/08/12 07:07:38;;;;;;;67.07;5.10;;;21.90;1.00;;;;;;5100730;22;20223;-87
2022/08/12 07:10:04;;;;;;;67.37;4.93;;;21.90;1.00;;;;;;5075851;28;20179;-86
2022/08/12 07:12:32;;;;;;;67.77;5.60;;;22.00;1.00;;;;;;5074694;28;20860;-86
2022/08/12 07:15:24;;;;;;;67.77;4.63;;;22.10;1.00;;;;;;5075222;28;20473;-86
2022/08/12 07:18:18;;;;;;;71.00;6.00;;;22.10;1.00;;;;;;5053167;28;20461;-86
2022/08/12 07:21:03;;;;;;;67.67;4.70;;;22.20;1.00;;;;;;5055580;28;20533;-86
2022/08/12 07:23:33;;;;;;;66.20;4.10;;;22.30;1.00;;;;;;5054866;28;20395;-86
2022/08/12 07:26:13;;;;;;;67.00;4.87;;;22.40;1.00;;;;;;5053927;28;20431;-86
2022/08/12 07:29:21;;;;;;;74.13;6.23;;;22.40;1.00;;;;;;5054007;28;20400;-86
2022/08/12 07:31:53;;;;;;;67.77;4.40;;;22.50;1.00;;;;;;5055126;28;20932;-86
2022/08/12 07:34:28;;;;;;;70.87;4.80;;;22.60;1.00;;;;;;5055434;28;20891;-86
2022/08/12 07:36:54;;;;;;;71.90;5.57;;;22.70;1.00;;;;;;5053516;28;20430;-86
2022/08/12 07:39:22;;;;;;;68.80;5.43;;;22.80;1.00;;;;;;5036831;28;20502;-87
2022/08/12 07:42:20;;;;;;;70.00;4.63;;;22.90;1.00;;;;;;5053636;28;20188;-86
2022/08/12 07:44:48;;;;;;;68.10;4.90;;;23.00;1.00;;;;;;5030168;28;20411;-86
2022/08/12 07:47:32;;;;;;;71.00;5.37;;;23.10;1.00;;;;;;5052845;28;20426;-86
2022/08/12 07:50:23;;;;;;;69.50;4.60;;;23.10;1.00;;;;;;5037658;28;20395;-86
2022/08/12 07:52:55;;;;;;;79.17;5.30;;;23.20;1.00;;;;;;5053590;28;20779;-86
2022/08/12 07:55:41;;;;;;;67.77;4.87;;;23.30;1.00;;;;;;5054301;28;20404;-86
2022/08/12 07:58:17;;;;;;;67.93;4.80;;;23.40;1.00;;;;;;5037006;28;20453;-86
2022/08/12 08:00:54;;;;;;;68.27;5.00;;;23.40;1.00;;;;;;5053912;28;20453;-86
2022/08/12 08:03:33;;;;;;;66.70;3.90;;;23.60;1.00;;;;;;5038632;28;20416;-86
2022/08/12 08:06:15;;;;;;;67.40;4.83;;;23.80;1.00;;;;;;5037649;28;20476;-86
2022/08/12 08:09:09;;;;;;;67.00;4.60;;;23.80;1.00;;;;;;5039496;28;20825;-86
2022/08/12 08:14:19;;;;;;;67.67;4.47;;;24.00;1.00;;;;;;5058280;28;20893;-85
2022/08/12 08:16:55;;;;;;;68.80;4.23;;;24.20;1.00;;;;;;5056381;28;20860;-86
2022/08/12 08:19:28;;;;;;;76.63;5.00;;;24.30;1.00;;;;;;5055133;28;20406;-86
2022/08/12 08:21:57;;;;;;;67.17;4.70;;;24.40;1.00;;;;;;5055083;28;20574;-86
2022/08/12 08:24:26;;;;;;;66.37;3.60;;;24.50;1.00;;;;;;5054728;28;20396;-86
2022/08/12 08:26:55;;;;;;;74.83;4.43;;;24.60;1.00;;;;;;5054713;28;20428;-86
2022/08/12 08:29:44;;;;;;;68.43;4.17;;;24.80;1.00;;;;;;5059547;28;20498;-86
2022/08/12 08:32:11;;;;;;;66.90;3.93;;;24.80;1.00;;;;;;5053756;28;20943;-86
2022/08/12 08:34:41;;;;;;;67.00;4.03;;;24.90;1.00;;;;;;5036120;28;20504;-86
2022/08/12 08:37:15;;;;;;;67.10;3.83;;;25.00;1.00;;;;;;5051898;28;20920;-86
2022/08/12 08:39:44;;;;;;;66.63;4.17;;;25.20;1.00;;;;;;5052416;28;20845;-86
2022/08/12 08:44:57;;;;;;;68.30;4.00;;;25.20;1.00;;;;;;5054181;28;20431;-87
2022/08/12 08:47:26;;;;;;;66.00;3.63;;;25.30;1.00;;;;;;5052516;28;20784;-86
2022/08/12 08:49:59;;;;;;;66.50;3.90;;;25.30;1.00;;;;;;5054197;28;20495;-85
2022/08/12 08:52:28;;;;;;;65.67;4.20;;;25.40;1.00;;;;;;5053880;28;20410;-86
2022/08/12 08:54:56;;;;;;;69.33;4.17;;;25.60;1.00;;;;;;5054489;28;20406;-86
2022/08/12 08:57:35;;;;;;;67.57;4.00;;;25.80;1.00;;;;;;5053121;28;20426;-86
2022/08/12 09:00:03;;;;;;;66.00;4.30;;;25.80;1.00;;;;;;5053011;28;20519;-86
2022/08/12 09:02:49;;;;;;;68.03;4.20;;;25.70;1.00;;;;;;5035264;28;20438;-87
2022/08/12 09:05:40;;;;;;;67.17;3.73;;;25.80;1.00;;;;;;5054963;28;20521;-86
2022/08/12 09:08:06;;;;;;;65.47;3.37;;;26.00;1.00;;;;;;5053256;28;20913;-86
2022/08/12 09:10:32;;;;;;;67.67;3.73;;;26.10;1.00;;;;;;5053495;28;20407;-86
2022/08/12 09:15:53;;;;;;;66.60;3.60;;;26.40;1.00;;;;;;5053486;28;20504;-86
2022/08/12 09:18:33;;;;;;;66.47;3.30;;;26.40;1.00;;;;;;5052154;28;20787;-86
2022/08/12 09:21:04;;;;;;;66.30;3.30;;;26.50;1.00;;;;;;5052990;28;20450;-86
2022/08/12 09:23:33;;;;;;;70.47;4.07;;;26.60;1.00;;;;;;5053285;28;20402;-86
2022/08/12 09:26:01;;;;;;;69.30;3.47;;;26.70;1.00;;;;;;5083589;22;20478;-82
2022/08/12 09:28:31;;;;;;;68.40;3.80;;;26.90;1.00;;;;;;5086403;28;20406;-83
2022/08/12 09:30:57;;;;;;;66.57;3.57;;;26.90;1.00;;;;;;5088619;28;20383;-83
2022/08/12 09:33:27;;;;;;;66.70;3.27;;;27.00;1.00;;;;;;5072440;28;20402;-83
2022/08/12 09:35:53;;;;;;;69.17;3.37;;;27.10;1.00;;;;;;5074008;28;20430;-82
2022/08/12 09:38:19;;;;;;;67.70;3.20;;;27.20;1.00;;;;;;5090387;28;20453;-82
2022/08/12 09:40:46;;;;;;;68.40;3.27;;;27.30;1.00;;;;;;5071896;28;20450;-83
2022/08/12 09:45:59;;;;;;;67.23;2.87;;;27.60;1.00;;;;;;5091015;28;20432;-81
2022/08/12 09:48:25;;;;;;;69.00;3.30;;;27.70;1.00;;;;;;5091034;28;20501;-81
2022/08/12 09:50:52;;;;;;;67.07;3.00;;;27.80;1.00;;;;;;5090956;28;20168;-81
2022/08/12 09:53:23;;;;;;;67.87;3.70;;;27.90;1.00;;;;;;5091333;28;20397;-81
2022/08/12 09:55:56;;;;;;;66.90;3.10;;;27.90;1.00;;;;;;5090897;28;20422;-81
2022/08/12 09:58:27;;;;;;;68.67;3.30;;;27.80;1.00;;;;;;5091117;28;20402;-81
2022/08/12 10:01:00;;;;;;;67.27;3.33;;;28.00;1.00;;;;;;5073470;28;20438;-82
2022/08/12 10:03:27;;;;;;;67.53;3.63;;;28.00;1.00;;;;;;5075481;28;20424;-81
2022/08/12 10:05:54;;;;;;;66.67;3.70;;;28.20;1.00;;;;;;5091679;28;20491;-81
2022/08/12 10:08:22;;;;;;;69.43;4.63;;;28.10;1.00;;;;;;5091720;28;20394;-82
2022/08/12 10:13:41;;;;;;;69.57;3.60;;;28.20;1.00;;;;;;5093076;28;20401;-81
2022/08/12 10:16:16;;;;;;;66.80;3.70;;;28.30;1.00;;;;;;5092166;28;20414;-81
2022/08/12 10:18:46;;;;;;;67.13;4.00;;;28.40;1.00;;;;;;5091941;28;20401;-82
2022/08/12 10:21:14;;;;;;;68.93;3.70;;;28.50;1.00;;;;;;5092317;28;20433;-82
2022/08/12 10:23:42;;;;;;;66.77;3.17;;;28.70;1.00;;;;;;5092153;28;20401;-81
2022/08/12 10:31:39;;;;;;;67.93;3.57;;;29.20;1.00;;;;;;5090545;28;20393;-82
2022/08/12 10:34:08;;;;;;;68.37;3.20;;;29.40;1.00;;;;;;5091652;28;20434;-82
2022/08/12 10:36:38;;;;;;;67.97;3.27;;;29.50;1.00;;;;;;5089754;28;20208;-81
2022/08/12 10:39:05;;;;;;;67.40;3.10;;;29.60;1.00;;;;;;5092330;28;20417;-82
2022/08/12 10:44:15;;;;;;;68.83;2.90;;;29.70;1.00;;;;;;5091357;28;20409;-82
2022/08/12 10:46:41;;;;;;;67.63;2.90;;;29.80;1.00;;;;;;5091046;28;20485;-82
2022/08/12 10:49:10;;;;;;;67.07;2.73;;;29.90;1.00;;;;;;5073241;28;20243;-82
2022/08/12 10:51:36;;;;;;;72.80;3.20;;;29.90;1.00;;;;;;5090301;28;20160;-82
2022/08/12 10:54:02;;;;;;;70.30;3.00;;;30.10;1.00;;;;;;5089628;28;20402;-82
2022/08/12 10:56:30;;;;;;;68.57;2.57;;;30.40;1.00;;;;;;5090078;28;20824;-82
2022/08/12 10:58:56;;;;;;;67.57;2.33;;;30.40;1.00;;;;;;5070537;28;20179;-82
2022/08/12 11:01:22;;;;;;;68.97;2.90;;;30.50;1.00;;;;;;5084579;28;20437;-82
2022/08/12 11:03:49;;;;;;;67.70;3.13;;;30.50;1.00;;;;;;5065595;28;20501;-82
2022/08/12 11:06:15;;;;;;;67.43;2.70;;;30.50;1.00;;;;;;5067095;28;20426;-82
2022/08/12 11:08:41;;;;;;;70.30;3.27;;;30.40;1.00;;;;;;5086309;28;20460;-82
2022/08/12 11:11:07;;;;;;;67.20;2.90;;;30.40;1.00;;;;;;5085128;28;20401;-82
2022/08/12 11:13:34;;;;;;;67.40;2.87;;;30.60;1.00;;;;;;5067208;28;20229;-82
2022/08/12 11:16:00;;;;;;;67.80;3.00;;;30.70;1.00;;;;;;5086486;28;20521;-82
2022/08/12 11:18:27;;;;;;;68.70;4.17;;;30.40;1.00;;;;;;5085807;28;20382;-82
2022/08/12 11:20:53;;;;;;;67.50;3.00;;;30.70;1.00;;;;;;5085381;28;20437;-82
2022/08/12 11:23:20;;;;;;;66.83;3.00;;;30.80;1.00;;;;;;5084977;28;20407;-82
2022/08/12 11:25:47;;;;;;;69.73;2.50;;;31.00;1.00;;;;;;5067771;28;20199;-82
2022/08/12 11:28:14;;;;;;;67.60;2.80;;;31.10;1.00;;;;;;5085446;28;20409;-82
2022/08/12 11:30:41;;;;;;;67.57;2.70;;;31.50;1.00;;;;;;5086431;28;20398;-82
2022/08/12 11:33:07;;;;;;;67.63;3.20;;;31.70;1.00;;;;;;5070597;28;20436;-82
2022/08/12 11:35:35;;;;;;;67.67;2.80;;;31.80;1.00;;;;;;5087805;28;20405;-82
2022/08/12 11:38:04;;;;;;;66.90;2.40;;;32.00;1.00;;;;;;5065535;28;20417;-82
2022/08/12 11:40:30;;;;;;;66.63;2.10;;;31.90;1.00;;;;;;5080251;28;20487;-82
2022/08/12 11:42:59;;;;;;;66.77;2.30;;;31.80;1.00;;;;;;5081459;28;20403;-82
2022/08/12 11:45:25;;;;;;;66.90;2.70;;;32.00;1.00;;;;;;5063600;28;20402;-81
2022/08/12 11:47:53;;;;;;;69.43;2.97;;;32.00;1.00;;;;;;5063813;28;20410;-82
2022/08/12 11:50:20;;;;;;;69.47;3.47;;;31.90;1.00;;;;;;5081821;28;20401;-82
2022/08/12 11:52:50;;;;;;;66.77;2.57;;;31.80;1.00;;;;;;5080936;28;20399;-81
2022/08/12 11:55:17;;;;;;;69.27;4.00;;;32.00;1.00;;;;;;5085297;28;20413;-82
2022/08/12 11:58:00;;;;;;;68.07;3.47;;;31.70;1.00;;;;;;5084501;28;20425;-82
2022/08/12 12:00:27;;;;;;;69.10;5.27;;;31.60;1.00;;;;;;5082621;28;20423;-82
2022/08/12 12:02:53;;;;;;;68.50;3.77;;;31.80;1.00;;;;;;5064763;28;20468;-82
2022/08/12 12:05:19;;;;;;;68.87;5.10;;;31.80;1.00;;;;;;5083283;28;20394;-82
2022/08/12 12:07:45;;;;;;;68.40;5.40;;;31.70;1.00;;;;;;5064413;28;20188;-82
2022/08/12 12:10:17;;;;;;;67.13;4.07;;;31.70;1.00;;;;;;5082763;28;20451;-82
2022/08/12 12:12:43;;;;;;;67.97;4.50;;;31.60;1.00;;;;;;5082431;28;20383;-82
2022/08/12 12:15:10;;;;;;;69.93;5.17;;;31.80;1.00;;;;;;5082935;28;20485;-82
2022/08/12 12:17:37;;;;;;;72.17;4.63;;;31.80;1.00;;;;;;5084365;28;20187;-82
2022/08/12 12:20:13;;;;;;;67.97;4.50;;;31.70;1.00;;;;;;5083224;28;20404;-82
2022/08/12 12:22:40;;;;;;;67.60;3.13;;;31.70;1.00;;;;;;5064285;28;20406;-82
2022/08/12 12:25:07;;;;;;;67.47;2.90;;;32.00;1.00;;;;;;5063280;28;20433;-82
2022/08/12 12:27:53;;;;;;;68.17;2.10;;;32.10;1.00;;;;;;5083177;28;20426;-81
2022/08/12 12:30:19;;;;;;;76.93;2.80;;;32.20;1.00;;;;;;5083574;28;20608;-82
2022/08/12 12:32:48;;;;;;;67.90;2.60;;;32.20;1.00;;;;;;5082610;28;20928;-81
2022/08/12 12:35:13;;;;;;;67.47;2.40;;;32.30;1.00;;;;;;5064638;28;20932;-81
2022/08/12 12:37:57;;;;;;;67.87;2.37;;;32.30;1.00;;;;;;5064693;28;20430;-81
2022/08/12 12:40:25;;;;;;;67.33;2.73;;;32.40;1.00;;;;;;5080560;28;22040;-81
2022/08/12 12:42:51;;;;;;;66.50;2.30;;;32.40;1.00;;;;;;5081860;28;20403;-81
2022/08/12 12:45:18;;;;;;;70.67;2.20;;;32.40;1.00;;;;;;5064226;28;20406;-83
2022/08/12 12:48:00;;;;;;;68.47;2.43;;;32.50;1.00;;;;;;5082803;28;20520;-82
2022/08/12 12:50:28;;;;;;;66.90;2.50;;;32.60;1.00;;;;;;5064876;28;20401;-81
2022/08/12 12:52:54;;;;;;;65.90;2.00;;;32.30;1.00;;;;;;5082125;28;20402;-82
2022/08/12 12:55:22;;;;;;;66.77;2.23;;;32.50;1.00;;;;;;5082653;28;20413;-82
2022/08/12 12:57:49;;;;;;;71.23;2.43;;;32.70;1.00;;;;;;5081648;28;20426;-82
2022/08/12 13:00:19;;;;;;;67.37;2.73;;;32.30;1.00;;;;;;5064615;28;20414;-82
2022/08/12 13:02:56;;;;;;;67.10;2.23;;;32.40;1.00;;;;;;5085914;28;20433;-82
2022/08/12 13:05:25;;;;;;;68.87;2.20;;;32.50;1.00;;;;;;5073266;28;20398;-82
2022/08/12 13:08:02;;;;;;;67.17;2.23;;;32.60;1.00;;;;;;5092741;28;20405;-82
2022/08/12 13:10:30;;;;;;;69.37;2.70;;;32.50;1.00;;;;;;5093134;28;20382;-82
2022/08/12 13:12:56;;;;;;;67.47;2.63;;;32.40;1.00;;;;;;5091128;28;20395;-82
2022/08/12 13:15:22;;;;;;;68.17;2.20;;;32.40;1.00;;;;;;5089220;28;20399;-82
2022/08/12 13:17:54;;;;;;;68.47;2.70;;;32.70;1.00;;;;;;5088985;28;20421;-82
2022/08/12 13:20:23;;;;;;;67.90;2.90;;;32.80;1.00;;;;;;5089262;28;20413;-82
2022/08/12 13:22:49;;;;;;;67.97;2.40;;;33.00;1.00;;;;;;5090490;28;20424;-79
2022/08/12 13:25:18;;;;;;;67.50;2.30;;;32.80;1.00;;;;;;5086912;28;20462;-81
2022/08/12 13:27:49;;;;;;;69.27;2.60;;;32.60;1.00;;;;;;5087023;28;20426;-82
2022/08/12 13:30:19;;;;;;;68.77;2.37;;;32.60;1.00;;;;;;5087852;28;20384;-82
2022/08/12 13:32:53;;;;;;;66.70;2.30;;;32.60;1.00;;;;;;5068407;28;20402;-82
2022/08/12 13:35:19;;;;;;;67.27;2.33;;;32.70;1.00;;;;;;5067050;28;20958;-82
2022/08/12 13:37:54;;;;;;;67.77;2.80;;;32.80;1.00;;;;;;5066688;28;20426;-82
2022/08/12 13:40:29;;;;;;;66.27;2.40;;;33.00;1.00;;;;;;5084434;28;20437;-82
2022/08/12 13:43:00;;;;;;;66.77;2.37;;;33.00;1.00;;;;;;5084900;28;20393;-82
2022/08/12 13:45:28;;;;;;;67.20;2.27;;;32.90;1.00;;;;;;5066561;28;20497;-82
2022/08/12 13:47:59;;;;;;;69.23;2.80;;;32.80;1.00;;;;;;5084752;28;20393;-82
2022/08/12 13:50:31;;;;;;;67.90;2.90;;;33.00;1.00;;;;;;5066127;28;20410;-82
2022/08/12 13:53:01;;;;;;;66.77;2.00;;;33.30;1.00;;;;;;5084662;28;20892;-82
2022/08/12 13:55:27;;;;;;;67.97;2.40;;;33.40;1.00;;;;;;5067013;28;20418;-82
2022/08/12 13:57:53;;;;;;;67.50;2.20;;;33.40;1.00;;;;;;5084383;28;20428;-82
2022/08/12 14:00:21;;;;;;;67.27;2.47;;;33.10;1.00;;;;;;5084072;28;20413;-82
2022/08/12 14:02:46;;;;;;;68.17;2.33;;;32.90;1.00;;;;;;5083882;28;20489;-82
2022/08/12 14:05:13;;;;;;;68.03;2.40;;;32.90;1.00;;;;;;5084383;28;20489;-82
2022/08/12 14:08:04;;;;;;;68.07;2.53;;;32.90;1.00;;;;;;5084356;28;20192;-82
2022/08/12 14:10:35;;;;;;;66.47;2.20;;;33.00;1.00;;;;;;5084907;28;20393;-82
2022/08/12 14:13:10;;;;;;;67.10;2.00;;;33.00;1.00;;;;;;5084791;28;20436;-82
2022/08/12 14:15:38;;;;;;;67.10;2.00;;;32.70;1.00;;;;;;5081650;28;20398;-82
2022/08/12 14:18:25;;;;;;;68.07;2.43;;;32.90;1.00;;;;;;5062634;28;20438;-82
2022/08/12 14:21:00;;;;;;;69.40;2.43;;;33.10;1.00;;;;;;5063673;28;21024;-82
2022/08/12 14:23:28;;;;;;;67.00;2.50;;;33.30;1.00;;;;;;5063202;28;20781;-82
2022/08/12 14:25:59;;;;;;;66.17;2.37;;;33.10;1.00;;;;;;5081409;28;20437;-82
2022/08/12 14:28:27;;;;;;;68.00;2.73;;;33.10;1.00;;;;;;5081165;28;20401;-82
2022/08/12 14:30:57;;;;;;;68.07;2.50;;;33.00;1.00;;;;;;5081723;28;21007;-83
2022/08/12 14:33:28;;;;;;;67.40;2.43;;;33.00;1.00;;;;;;5081145;28;20890;-83
2022/08/12 14:35:55;;;;;;;67.50;2.33;;;33.00;1.00;;;;;;5080950;28;20453;-81
2022/08/12 14:38:38;;;;;;;67.27;2.50;;;32.90;1.00;;;;;;5079783;28;20402;-81
2022/08/12 14:41:05;;;;;;;67.10;1.97;;;33.00;1.00;;;;;;5080199;28;20800;-81
2022/08/12 14:43:36;;;;;;;69.07;2.40;;;32.80;1.00;;;;;;5080132;28;20742;-81
2022/08/12 14:46:05;;;;;;;66.80;2.20;;;33.10;1.00;;;;;;5080312;28;20853;-81
2022/08/12 14:48:32;;;;;;;67.20;2.30;;;33.40;1.00;;;;;;5079622;28;20394;-81
2022/08/12 14:50:59;;;;;;;69.77;2.17;;;33.50;1.00;;;;;;5080434;28;20874;-81
2022/08/12 14:53:28;;;;;;;70.90;2.40;;;33.30;1.00;;;;;;5079681;28;20452;-81
2022/08/12 14:55:53;;;;;;;67.63;2.40;;;33.50;1.00;;;;;;5079897;28;20464;-80
2022/08/12 14:58:19;;;;;;;66.83;2.10;;;33.80;1.00;;;;;;5079360;28;20410;-81
2022/08/12 15:03:34;;;;;;;67.57;2.27;;;34.00;1.00;;;;;;5080149;28;20159;-81